createdAt,value
2022-10-17T00:03:48.702Z,90.0
2022-10-17T00:08:48.693Z,90.5
2022-10-17T00:13:48.701Z,91.0
2022-10-17T00:18:48.699Z,91.5
2022-10-17T00:23:48.720Z,91.5
2022-10-17T00:28:48.785Z,91.5
2022-10-17T00:33:48.717Z,92.0
2022-10-17T00:38:48.714Z,92.0
2022-10-17T00:43:48.726Z,92.5
2022-10-17T00:48:48.719Z,92.5
2022-10-17T00:53:48.724Z,92.5
2022-10-17T00:58:48.726Z,92.5
2022-10-17T01:03:48.727Z,92.5
2022-10-17T01:08:48.730Z,92.5
2022-10-17T01:13:48.735Z,92.5
2022-10-17T01:18:48.734Z,93.0
2022-10-17T01:23:48.739Z,93.0
2022-10-17T01:28:48.840Z,93.5
2022-10-17T01:33:48.744Z,94.0
2022-10-17T01:38:48.757Z,94.0
2022-10-17T01:43:48.795Z,94.0
2022-10-17T01:48:48.783Z,94.5
2022-10-17T01:53:48.763Z,95.0
2022-10-17T01:58:48.755Z,95.0
2022-10-17T02:03:48.764Z,95.0
2022-10-17T02:08:48.795Z,95.5
2022-10-17T02:13:48.782Z,95.0
2022-10-17T02:18:48.782Z,95.0
2022-10-17T02:23:48.818Z,94.5
2022-10-17T02:28:48.895Z,94.5
2022-10-17T02:33:48.804Z,94.5
2022-10-17T02:38:48.819Z,94.5
2022-10-17T02:43:48.801Z,94.5
2022-10-17T02:48:48.789Z,94.5
2022-10-17T02:53:48.810Z,94.5
2022-10-17T02:58:48.830Z,94.0
2022-10-17T03:03:48.802Z,94.0
2022-10-17T03:08:48.809Z,94.0
2022-10-17T03:13:48.834Z,94.0
2022-10-17T03:18:50.175Z,94.0
2022-10-17T03:23:48.821Z,94.0
2022-10-17T03:28:51.926Z,93.5
2022-10-17T03:33:48.818Z,93.5
2022-10-17T03:38:48.826Z,93.5
2022-10-17T03:43:48.822Z,93.5
2022-10-17T03:48:48.825Z,94.0
2022-10-17T03:53:48.828Z,94.0
2022-10-17T03:58:48.838Z,94.0
2022-10-17T04:03:48.847Z,94.0
2022-10-17T04:08:48.835Z,94.0
2022-10-17T04:13:48.848Z,94.0
2022-10-17T04:18:48.847Z,94.5
2022-10-17T04:23:48.852Z,94.5
2022-10-17T04:28:48.850Z,94.5
2022-10-17T04:33:48.856Z,94.5
2022-10-17T04:38:48.859Z,94.5
2022-10-17T04:43:51.125Z,94.5
2022-10-17T04:53:48.867Z,94.0
2022-10-17T04:58:48.892Z,94.0
2022-10-17T05:03:48.902Z,94.0
2022-10-17T05:08:48.902Z,94.0
2022-10-17T05:13:48.883Z,93.5
2022-10-17T05:18:52.702Z,93.5
2022-10-17T05:23:48.889Z,93.5
2022-10-17T05:28:48.969Z,93.5
2022-10-17T05:33:48.892Z,93.0
2022-10-17T05:38:48.891Z,93.0
2022-10-17T05:43:48.904Z,93.0
2022-10-17T05:48:48.906Z,93.0
2022-10-17T05:53:48.912Z,93.0
2022-10-17T05:58:50.846Z,93.0
2022-10-17T06:03:48.914Z,93.0
2022-10-17T06:08:48.936Z,93.0
2022-10-17T06:13:48.923Z,92.5
2022-10-17T06:23:48.929Z,92.5
2022-10-17T06:28:48.984Z,92.5
2022-10-17T06:33:48.938Z,92.0
2022-10-17T06:38:48.935Z,92.0
2022-10-17T06:43:48.945Z,92.0
2022-10-17T06:48:48.942Z,92.0
2022-10-17T06:53:48.947Z,91.5
2022-10-17T06:58:48.944Z,91.5
2022-10-17T07:03:48.951Z,91.5
2022-10-17T07:08:48.964Z,91.5
2022-10-17T07:13:48.961Z,91.5
2022-10-17T07:18:48.967Z,91.5
2022-10-17T07:23:48.962Z,91.5
2022-10-17T07:28:49.032Z,91.5
2022-10-17T07:33:48.974Z,91.0
2022-10-17T07:38:48.982Z,91.0
2022-10-17T07:43:48.976Z,91.0
2022-10-17T07:48:49.007Z,90.5
2022-10-17T07:53:49.074Z,90.5
2022-10-17T07:58:49.063Z,90.5
2022-10-17T08:03:49.019Z,90.5
2022-10-17T08:08:48.990Z,90.5
2022-10-17T08:13:48.993Z,90.5
2022-10-17T08:18:48.999Z,90.0
2022-10-17T08:23:49.339Z,90.0
2022-10-17T08:28:49.027Z,90.0
2022-10-17T08:33:49.005Z,90.0
2022-10-17T08:38:52.600Z,90.0
2022-10-17T08:43:49.231Z,89.5
2022-10-17T08:48:49.236Z,89.5
2022-10-17T08:53:49.255Z,89.5
2022-10-17T08:58:49.022Z,89.5
2022-10-17T09:03:49.026Z,89.0
2022-10-17T09:08:49.024Z,89.0
2022-10-17T09:13:49.030Z,89.0
2022-10-17T09:18:49.042Z,89.0
2022-10-17T09:23:49.040Z,88.5
2022-10-17T09:28:49.103Z,88.5
2022-10-17T09:33:54.173Z,88.5
2022-10-17T09:38:49.049Z,88.0
2022-10-17T09:43:49.051Z,88.5
2022-10-17T09:48:52.584Z,89.0
2022-10-17T09:53:49.053Z,89.5
2022-10-17T09:58:49.069Z,90.0
2022-10-17T10:03:49.069Z,90.0
2022-10-17T10:08:49.073Z,91.0
2022-10-17T10:13:49.070Z,91.0
2022-10-17T10:18:50.879Z,91.0
2022-10-17T10:23:49.084Z,91.0
2022-10-17T10:28:49.095Z,91.5
2022-10-17T10:33:50.931Z,91.5
2022-10-17T10:38:49.083Z,92.0
2022-10-17T10:43:49.089Z,92.0
2022-10-17T10:48:49.087Z,92.5
2022-10-17T10:53:49.092Z,92.5
2022-10-17T10:58:49.098Z,92.5
2022-10-17T11:03:49.104Z,93.0
2022-10-17T11:08:49.103Z,93.0
2022-10-17T11:13:51.831Z,93.0
2022-10-17T11:18:49.118Z,93.0
2022-10-17T11:23:49.121Z,93.0
2022-10-17T11:28:49.189Z,93.0
2022-10-17T11:33:49.122Z,93.0
2022-10-17T11:38:49.124Z,92.5
2022-10-17T11:43:49.126Z,93.0
2022-10-17T11:48:49.130Z,93.0
2022-10-17T11:53:49.130Z,93.0
2022-10-17T11:58:49.146Z,93.0
2022-10-17T12:03:49.141Z,93.0
2022-10-17T12:08:49.141Z,93.5
2022-10-17T12:13:49.151Z,93.5
2022-10-17T12:18:49.146Z,93.5
2022-10-17T12:23:49.151Z,93.5
2022-10-17T12:28:49.198Z,93.5
2022-10-17T12:33:49.170Z,93.5
2022-10-17T12:38:49.974Z,93.5
2022-10-17T12:48:49.185Z,93.5
2022-10-17T12:53:49.171Z,94.0
2022-10-17T12:58:49.173Z,94.0
2022-10-17T13:03:49.191Z,93.5
2022-10-17T13:08:53.662Z,93.5
2022-10-17T13:13:49.179Z,93.5
2022-10-17T13:18:49.205Z,93.0
2022-10-17T13:23:49.191Z,93.0
2022-10-17T13:28:49.277Z,93.0
2022-10-17T13:33:49.191Z,93.0
2022-10-17T13:38:49.205Z,93.0
2022-10-17T13:43:49.196Z,93.0
2022-10-17T13:48:49.210Z,93.0
2022-10-17T13:53:49.202Z,93.0
2022-10-17T13:58:49.205Z,93.0
2022-10-17T14:03:57.024Z,93.0
2022-10-17T14:08:49.240Z,93.0
2022-10-17T14:13:49.217Z,93.5
2022-10-17T14:18:49.215Z,93.5
2022-10-17T14:23:49.217Z,93.5
2022-10-17T14:28:49.255Z,93.5
2022-10-17T14:33:50.867Z,93.5
2022-10-17T14:38:49.244Z,93.5
2022-10-17T14:43:49.243Z,93.5
2022-10-17T14:48:49.243Z,93.5
2022-10-17T14:53:49.250Z,93.5
2022-10-17T14:58:49.237Z,93.5
2022-10-17T15:03:49.294Z,93.5
2022-10-17T15:08:49.254Z,93.5
2022-10-17T15:13:49.252Z,93.5
2022-10-17T15:18:49.257Z,93.0
2022-10-17T15:23:49.262Z,93.0
2022-10-17T15:28:49.362Z,93.0
2022-10-17T15:33:49.280Z,93.0
2022-10-17T15:38:49.271Z,93.0
2022-10-17T15:43:49.268Z,93.5
2022-10-17T15:48:49.284Z,93.0
2022-10-17T15:53:49.318Z,93.0
2022-10-17T15:58:49.306Z,93.0
2022-10-17T16:03:49.282Z,93.0
2022-10-17T16:08:49.285Z,93.5
2022-10-17T16:13:49.280Z,93.5
2022-10-17T16:18:49.291Z,93.5
2022-10-17T16:23:49.304Z,93.5
2022-10-17T16:28:49.342Z,93.5
2022-10-17T16:33:49.294Z,93.5
2022-10-17T16:38:49.301Z,93.5
2022-10-17T16:43:49.297Z,93.5
2022-10-17T16:48:49.307Z,94.0
2022-10-17T16:53:49.303Z,94.0
2022-10-17T16:58:49.311Z,94.0
2022-10-17T17:03:49.312Z,94.0
2022-10-17T17:08:49.322Z,94.0
2022-10-17T17:13:49.320Z,94.5
2022-10-17T17:18:49.321Z,94.5
2022-10-17T17:23:49.331Z,94.5
2022-10-17T17:28:49.414Z,94.5
2022-10-17T17:33:49.385Z,94.5
2022-10-17T17:38:49.353Z,94.5
2022-10-17T17:43:49.333Z,94.5
2022-10-17T17:48:49.337Z,95.0
2022-10-17T17:53:49.342Z,95.0
2022-10-17T17:58:49.339Z,95.0
2022-10-17T18:03:49.347Z,95.0
2022-10-17T18:08:49.365Z,95.0
2022-10-17T18:13:49.352Z,95.0
2022-10-17T18:18:49.381Z,95.0
2022-10-17T18:23:49.370Z,95.0
2022-10-17T18:28:49.361Z,95.0
2022-10-17T18:33:49.372Z,95.0
2022-10-17T18:38:49.376Z,95.0
2022-10-17T18:43:49.367Z,95.0
2022-10-17T18:48:49.375Z,95.5
2022-10-17T18:53:49.384Z,95.5
2022-10-17T18:58:49.393Z,95.5
2022-10-17T19:03:49.379Z,95.5
2022-10-17T19:08:49.383Z,95.5
2022-10-17T19:13:49.386Z,95.5
2022-10-17T19:18:49.393Z,95.5
2022-10-17T19:23:49.388Z,96.0
2022-10-17T19:28:49.433Z,96.0
2022-10-17T19:33:49.411Z,96.0
2022-10-17T19:38:49.400Z,96.0
2022-10-17T19:43:49.413Z,96.5
2022-10-17T19:48:49.401Z,96.5
2022-10-17T19:53:49.427Z,96.5
2022-10-17T19:58:49.402Z,96.5
2022-10-17T20:03:49.423Z,96.5
2022-10-17T20:08:49.414Z,96.5
2022-10-17T20:13:49.415Z,96.5
2022-10-17T20:18:49.425Z,96.5
2022-10-17T20:23:49.429Z,96.5
2022-10-17T20:28:49.497Z,96.5
2022-10-17T20:33:49.426Z,96.5
2022-10-17T20:38:49.436Z,96.5
2022-10-17T20:43:49.440Z,96.5
2022-10-17T20:48:49.441Z,96.5
2022-10-17T20:53:49.495Z,96.5
2022-10-17T20:58:49.445Z,96.5
2022-10-17T21:03:49.469Z,96.5
2022-10-17T21:08:49.453Z,96.5
2022-10-17T21:13:49.459Z,96.0
2022-10-17T21:18:49.468Z,96.0
2022-10-17T21:23:49.455Z,96.0
2022-10-17T21:28:49.544Z,96.0
2022-10-17T21:33:49.471Z,96.0
2022-10-17T21:38:49.469Z,96.0
2022-10-17T21:43:49.470Z,96.0
2022-10-17T21:48:49.478Z,96.0
2022-10-17T21:53:49.473Z,96.0
2022-10-17T21:58:49.474Z,95.5
2022-10-17T22:03:49.487Z,95.5
2022-10-17T22:08:49.495Z,95.5
2022-10-17T22:13:49.490Z,95.5
2022-10-17T22:18:49.491Z,96.0
2022-10-17T22:23:49.491Z,95.5
2022-10-17T22:28:49.566Z,95.5
2022-10-17T22:33:49.499Z,96.0
2022-10-17T22:38:49.497Z,96.0
2022-10-17T22:43:49.506Z,96.0
2022-10-17T22:48:49.521Z,96.0
2022-10-17T22:53:49.513Z,96.0
2022-10-17T22:58:49.512Z,96.0
2022-10-17T23:03:49.521Z,96.0
2022-10-17T23:08:49.523Z,96.0
2022-10-17T23:13:49.524Z,96.0
2022-10-17T23:18:49.535Z,95.5
2022-10-17T23:23:49.527Z,95.5
2022-10-17T23:28:49.578Z,95.5
2022-10-17T23:33:49.526Z,95.5
2022-10-17T23:38:51.737Z,95.5
2022-10-17T23:43:49.535Z,96.0
2022-10-17T23:48:49.540Z,96.0
2022-10-17T23:53:49.543Z,96.0
2022-10-17T23:58:49.547Z,96.0
